KCKM/CKM METAR and TAF weather

Enter ICAO airport designator
Station Type Date Time Source
KCKM METAR 2019/11/14 04:15 UTC NOAA

KCKM 140415Z AUTO 00000KT 10SM 01/M02 A3025 RMK A01


Station Type Date Time Source
KCKM Decoded METAR 2019/11/14 04:15 UTC NOAA

Station name not available
Nov 13, 2019 - 11:15 PM EST / 2019.11.14 0415 UTC
Wind: Calm:0
Visibility: 10 mile(s):0
Temperature: 33 F (1 C)
Dew Point: 28 F (-2 C)
Relative Humidity: 80%
Pressure (altimeter): 30.25 in. Hg (1024 hPa)
ob: KCKM 140415Z AUTO 00000KT 10SM 01/M02 A3025 RMK A01
cycle: 4

Station Type Date Time Source
KCKM TAF UTC NOAA

Error!

Example: see airport list